Time;durP1;ratioP1;P1;durP2;ratioP2;P2;SDS_P1;SDS_P2;PMS_P1;PMS_P2;Temp;Humidity;BMP_temperature;BMP_pressure;BME280_temperature;BME280_humidity;BME280_pressure;Samples;Min_cycle;Max_cycle;Signal;HPM_P1;HPM_P2
2023/03/01 00:03:51;;;;;;;10.83;6.33;;;;;-1.80;102442.00;;;;9894683;30;20687;-77
2023/03/01 00:08:53;;;;;;;11.37;6.57;;;;;-1.90;102442.00;;;;9890208;29;20239;-77
2023/03/01 00:13:57;;;;;;;18.27;7.87;;;;;-1.90;102440.00;;;;9874600;30;20222;-78
2023/03/01 00:18:59;;;;;;;8.73;6.30;;;;;-2.00;102448.00;;;;9859921;30;20866;-78
2023/03/01 00:24:02;;;;;;;11.70;6.43;;;;;-2.10;102436.00;;;;9859428;30;20253;-77
2023/03/01 00:29:04;;;;;;;12.90;7.90;;;;;-2.30;102427.00;;;;9872188;30;20340;-77
2023/03/01 00:34:06;;;;;;;9.20;6.13;;;;;-2.30;102422.00;;;;9882630;29;20244;-78
2023/03/01 00:39:13;;;;;;;10.47;6.43;;;;;-2.40;102428.00;;;;9882259;30;20188;-78
2023/03/01 00:44:15;;;;;;;13.90;7.57;;;;;-2.50;102424.00;;;;9866985;30;20268;-78
2023/03/01 00:49:17;;;;;;;13.03;9.10;;;;;-2.60;102419.00;;;;9840345;30;20217;-78
2023/03/01 00:54:19;;;;;;;9.63;6.33;;;;;-2.60;102419.00;;;;9891076;29;20211;-78
2023/03/01 00:59:21;;;;;;;11.40;7.00;;;;;-2.70;102425.00;;;;9844550;30;20211;-78
2023/03/01 01:04:23;;;;;;;13.93;7.57;;;;;-2.70;102417.00;;;;9836462;30;20201;-78
2023/03/01 01:09:25;;;;;;;9.13;6.47;;;;;-2.70;102423.00;;;;9851306;30;20236;-78
2023/03/01 01:14:27;;;;;;;11.20;7.30;;;;;-2.80;102416.00;;;;9835872;30;20204;-78
2023/03/01 01:19:30;;;;;;;11.37;5.50;;;;;-2.70;102412.00;;;;9835606;30;20216;-78
2023/03/01 01:24:32;;;;;;;11.47;6.77;;;;;-2.70;102405.00;;;;9881925;30;20196;-78
2023/03/01 01:29:33;;;;;;;10.40;6.60;;;;;-2.70;102401.00;;;;9866316;30;20257;-78
2023/03/01 01:34:35;;;;;;;12.97;6.43;;;;;-2.70;102395.00;;;;9858184;30;20315;-78
2023/03/01 01:39:37;;;;;;;11.13;7.40;;;;;-2.60;102398.00;;;;9857697;30;20295;-78
2023/03/01 01:44:40;;;;;;;11.40;6.80;;;;;-2.60;102396.00;;;;9857936;30;20189;-78
2023/03/01 01:49:49;;;;;;;12.87;7.37;;;;;-2.60;102391.00;;;;9872584;30;20242;-78
2023/03/01 01:54:53;;;;;;;8.57;5.67;;;;;-2.60;102382.00;;;;9929572;29;20222;-78
2023/03/01 01:59:59;;;;;;;9.10;5.63;;;;;-2.60;102366.00;;;;9882932;30;20192;-79
2023/03/01 02:05:10;;;;;;;10.03;5.43;;;;;-2.70;102359.00;;;;9880023;30;20272;-80
2023/03/01 02:10:13;;;;;;;10.87;6.50;;;;;-2.80;102353.00;;;;9879718;29;20227;-80
2023/03/01 02:15:15;;;;;;;8.33;6.20;;;;;-2.90;102358.00;;;;9879000;30;20227;-80
2023/03/01 02:20:40;;;;;;;17.20;6.40;;;;;-3.10;102345.00;;;;9878768;30;20204;-80
2023/03/01 02:26:00;;;;;;;8.57;6.50;;;;;-3.20;102330.00;;;;9878590;30;20199;-80
2023/03/01 02:36:38;;;;;;;8.90;5.57;;;;;-3.20;102323.00;;;;9868211;30;20208;-80
2023/03/01 02:41:45;;;;;;;10.47;6.17;;;;;-3.30;102318.00;;;;9863534;30;20221;-80
2023/03/01 02:46:53;;;;;;;12.13;6.23;;;;;-3.30;102312.00;;;;9878389;30;20200;-80
2023/03/01 02:52:21;;;;;;;10.37;5.87;;;;;-3.40;102311.00;;;;9841004;30;20210;-80
2023/03/01 02:57:24;;;;;;;11.63;6.07;;;;;-3.40;102304.00;;;;9841714;30;20733;-80
2023/03/01 03:02:35;;;;;;;9.00;6.20;;;;;-3.40;102308.00;;;;9862327;30;20231;-80
2023/03/01 03:08:04;;;;;;;11.97;6.87;;;;;-3.50;102312.00;;;;9856853;29;20246;-80
2023/03/01 03:13:12;;;;;;;9.77;5.83;;;;;-3.50;102315.00;;;;9878299;30;20202;-80
2023/03/01 03:18:16;;;;;;;14.63;6.93;;;;;-3.50;102308.00;;;;9863353;30;20216;-80
2023/03/01 03:23:20;;;;;;;10.30;5.93;;;;;-3.50;102308.00;;;;9871323;30;20217;-81
2023/03/01 03:28:22;;;;;;;9.73;6.17;;;;;-3.50;102307.00;;;;9862786;30;20257;-79
2023/03/01 03:33:24;;;;;;;10.63;6.37;;;;;-3.40;102305.00;;;;9854589;30;20393;-80
2023/03/01 03:38:26;;;;;;;10.07;5.30;;;;;-3.40;102308.00;;;;9856019;30;20203;-80
2023/03/01 03:43:30;;;;;;;10.37;6.03;;;;;-3.40;102309.00;;;;9877399;30;20188;-81
2023/03/01 03:48:39;;;;;;;12.97;7.23;;;;;-3.20;102307.00;;;;9876432;30;20302;-82
2023/03/01 03:53:41;;;;;;;9.60;7.33;;;;;-3.20;102312.00;;;;9875114;29;20245;-80
2023/03/01 03:58:43;;;;;;;14.03;7.67;;;;;-3.10;102300.00;;;;9889320;30;20432;-81
2023/03/01 04:03:47;;;;;;;13.47;6.53;;;;;-3.20;102294.00;;;;9876749;30;20214;-80
2023/03/01 04:08:50;;;;;;;11.00;6.50;;;;;-3.20;102289.00;;;;9884913;29;20314;-81
2023/03/01 04:13:55;;;;;;;11.37;6.67;;;;;-3.30;102296.00;;;;9913955;29;20257;-80
2023/03/01 04:18:59;;;;;;;9.60;6.63;;;;;-3.40;102290.00;;;;9884049;29;20207;-81
2023/03/01 04:24:03;;;;;;;10.43;6.23;;;;;-3.50;102290.00;;;;9927681;29;20237;-81
2023/03/01 04:29:05;;;;;;;9.17;5.40;;;;;-3.70;102291.00;;;;9885861;30;20262;-81
2023/03/01 04:34:07;;;;;;;11.30;6.43;;;;;-3.70;102284.00;;;;9875569;30;20210;-81
2023/03/01 04:39:11;;;;;;;7.30;5.40;;;;;-3.80;102285.00;;;;9875149;30;20203;-81
2023/03/01 04:44:14;;;;;;;10.83;6.23;;;;;-3.90;102291.00;;;;9845632;30;20214;-81
2023/03/01 04:49:16;;;;;;;9.90;6.03;;;;;-4.00;102281.00;;;;9874959;30;20192;-80
2023/03/01 04:54:18;;;;;;;10.43;6.93;;;;;-3.90;102280.00;;;;9907190;29;20215;-81
2023/03/01 04:59:22;;;;;;;14.13;6.63;;;;;-4.00;102283.00;;;;9897722;30;20225;-80
2023/03/01 05:04:24;;;;;;;10.87;6.63;;;;;-4.00;102266.00;;;;9875478;30;20199;-81
2023/03/01 05:09:26;;;;;;;10.57;6.83;;;;;-4.00;102265.00;;;;9875138;29;20261;-81
2023/03/01 05:14:28;;;;;;;7.60;5.80;;;;;-4.10;102254.00;;;;9874378;30;20207;-82
2023/03/01 05:19:31;;;;;;;9.03;5.80;;;;;-4.10;102256.00;;;;9860752;30;20200;-81
2023/03/01 05:24:34;;;;;;;8.40;5.50;;;;;-4.10;102247.00;;;;9860307;30;20288;-81
2023/03/01 05:29:39;;;;;;;11.20;6.87;;;;;-4.00;102239.00;;;;9860490;30;20780;-81
2023/03/01 05:34:41;;;;;;;11.37;5.77;;;;;-4.10;102248.00;;;;9874483;30;20290;-81
2023/03/01 05:39:43;;;;;;;13.73;5.87;;;;;-4.10;102235.00;;;;9874110;30;20668;-81
2023/03/01 05:44:45;;;;;;;10.00;6.47;;;;;-4.10;102236.00;;;;9874343;30;20199;-81
2023/03/01 05:49:47;;;;;;;8.90;6.03;;;;;-4.20;102234.00;;;;9852924;30;20212;-81
2023/03/01 05:54:49;;;;;;;10.93;6.07;;;;;-4.20;102242.00;;;;9836687;30;20640;-81
2023/03/01 05:59:51;;;;;;;10.27;5.97;;;;;-4.30;102242.00;;;;9855597;30;20233;-81
2023/03/01 06:04:53;;;;;;;11.27;6.77;;;;;-4.30;102241.00;;;;9851012;30;20214;-81
2023/03/01 06:09:55;;;;;;;12.47;5.93;;;;;-4.30;102232.00;;;;9864306;29;20244;-82
2023/03/01 06:14:57;;;;;;;11.20;6.90;;;;;-4.30;102229.00;;;;9844305;30;20731;-81
2023/03/01 06:19:59;;;;;;;7.03;5.20;;;;;-4.40;102234.00;;;;9859008;30;20200;-83
2023/03/01 06:25:00;;;;;;;11.53;5.73;;;;;-4.40;102231.00;;;;9843591;30;20212;-81
2023/03/01 06:30:03;;;;;;;11.47;6.77;;;;;-4.40;102226.00;;;;9878888;30;20687;-81
2023/03/01 06:35:06;;;;;;;12.07;5.90;;;;;-4.40;102219.00;;;;9865804;30;20273;-81
2023/03/01 06:40:11;;;;;;;9.20;5.67;;;;;-4.40;102221.00;;;;9879617;30;20287;-82
2023/03/01 06:45:13;;;;;;;9.63;6.40;;;;;-4.40;102215.00;;;;9879449;30;20184;-81
2023/03/01 06:50:16;;;;;;;13.60;6.83;;;;;-4.40;102223.00;;;;9870030;30;20204;-81
2023/03/01 06:55:18;;;;;;;7.60;5.33;;;;;-4.30;102228.00;;;;9862363;30;20243;-82
2023/03/01 07:00:21;;;;;;;12.33;7.03;;;;;-4.20;102237.00;;;;9863208;30;20195;-81
2023/03/01 07:05:23;;;;;;;13.53;6.93;;;;;-4.00;102239.00;;;;9873263;30;20307;-81
2023/03/01 07:10:25;;;;;;;11.70;7.10;;;;;-3.80;102240.00;;;;9849256;29;20620;-81
2023/03/01 07:15:28;;;;;;;14.50;7.63;;;;;-3.50;102248.00;;;;9864265;30;20669;-82
2023/03/01 07:20:30;;;;;;;17.77;9.00;;;;;-3.20;102245.00;;;;9893602;29;20230;-82
2023/03/01 07:25:33;;;;;;;13.03;7.10;;;;;-2.80;102245.00;;;;9882123;30;20292;-81
2023/03/01 07:30:35;;;;;;;13.13;7.93;;;;;-2.40;102242.00;;;;9876147;30;20191;-82
2023/03/01 07:35:37;;;;;;;20.47;7.73;;;;;-2.00;102230.00;;;;9892046;30;20215;-82
2023/03/01 07:40:40;;;;;;;16.50;8.33;;;;;-1.70;102222.00;;;;9886684;30;20208;-83
2023/03/01 07:45:42;;;;;;;16.63;8.87;;;;;-1.40;102247.00;;;;9878010;30;20199;-82
2023/03/01 07:50:44;;;;;;;15.27;9.13;;;;;-1.10;102235.00;;;;9877332;30;20342;-82
2023/03/01 07:55:46;;;;;;;14.47;9.07;;;;;-0.70;102254.00;;;;9859257;30;20212;-82
2023/03/01 08:00:48;;;;;;;14.00;9.00;;;;;-0.40;102247.00;;;;9877251;30;20579;-82
2023/03/01 08:05:50;;;;;;;12.23;7.93;;;;;-0.10;102244.00;;;;9886093;29;20195;-82
2023/03/01 08:10:52;;;;;;;11.87;8.13;;;;;0.20;102241.00;;;;9897001;29;20234;-82
2023/03/01 08:15:54;;;;;;;13.63;8.20;;;;;0.50;102244.00;;;;9908204;29;20336;-82
2023/03/01 08:21:00;;;;;;;14.60;9.13;;;;;0.80;102241.00;;;;9900201;29;20211;-82
2023/03/01 08:26:18;;;;;;;14.33;8.50;;;;;1.10;102241.00;;;;9928670;29;20678;-82
2023/03/01 08:31:27;;;;;;;18.23;9.60;;;;;1.50;102250.00;;;;9918009;29;20555;-81
2023/03/01 08:36:32;;;;;;;16.10;9.37;;;;;2.20;102247.00;;;;9917700;29;20238;-82
2023/03/01 08:41:35;;;;;;;13.00;8.60;;;;;2.80;102252.00;;;;9910722;29;20286;-82
2023/03/01 08:46:41;;;;;;;14.23;8.30;;;;;3.30;102237.00;;;;9930098;29;20194;-82
2023/03/01 08:51:44;;;;;;;13.67;8.63;;;;;3.70;102232.00;;;;9893828;29;20199;-81
2023/03/01 08:56:47;;;;;;;14.07;8.20;;;;;4.00;102222.00;;;;9915974;29;20790;-82
2023/03/01 09:01:49;;;;;;;12.63;7.93;;;;;4.20;102226.00;;;;9911469;29;20218;-82
2023/03/01 09:06:51;;;;;;;11.07;7.97;;;;;4.50;102219.00;;;;9924863;29;20267;-82
2023/03/01 09:11:53;;;;;;;10.57;7.67;;;;;4.90;102211.00;;;;9908777;29;20211;-82
2023/03/01 09:16:55;;;;;;;11.17;7.80;;;;;5.20;102207.00;;;;9906805;29;20726;-82
2023/03/01 09:21:58;;;;;;;10.97;8.07;;;;;5.50;102194.00;;;;9938581;29;20206;-82
2023/03/01 09:27:00;;;;;;;9.40;7.23;;;;;5.80;102181.00;;;;9923653;29;20651;-82
2023/03/01 09:32:02;;;;;;;11.43;7.87;;;;;5.90;102188.00;;;;9915618;29;20216;-79
2023/03/01 09:37:04;;;;;;;14.97;8.30;;;;;6.00;102182.00;;;;9916249;29;20245;-80
2023/03/01 09:42:12;;;;;;;14.00;8.13;;;;;6.40;102187.00;;;;9927225;29;20256;-82
2023/03/01 09:47:21;;;;;;;13.70;8.00;;;;;6.80;102155.00;;;;9934817;29;20198;-78
2023/03/01 09:52:37;;;;;;;15.30;8.30;;;;;7.00;102159.00;;;;9906890;29;20213;-79
2023/03/01 09:58:14;;;;;;;11.50;7.77;;;;;7.10;102149.00;;;;9939817;29;20209;-80
2023/03/01 10:03:22;;;;;;;10.47;7.23;;;;;7.20;102138.00;;;;9922877;29;20275;-79
2023/03/01 10:08:37;;;;;;;10.77;8.33;;;;;7.40;102143.00;;;;9933269;29;20227;-79
2023/03/01 10:13:48;;;;;;;12.23;8.33;;;;;7.70;102147.00;;;;9871905;29;20253;-79
2023/03/01 10:18:59;;;;;;;11.70;8.53;;;;;7.70;102134.00;;;;9872415;29;20215;-79
2023/03/01 10:24:14;;;;;;;15.20;8.57;;;;;7.80;102143.00;;;;9858154;29;20295;-79
2023/03/01 10:29:16;;;;;;;14.50;8.67;;;;;8.20;102144.00;;;;9879755;29;20203;-80
2023/03/01 10:34:20;;;;;;;11.67;7.57;;;;;8.60;102133.00;;;;9885809;29;20211;-79
2023/03/01 10:39:25;;;;;;;9.73;8.00;;;;;9.10;102130.00;;;;9913974;29;20204;-79
2023/03/01 10:44:48;;;;;;;10.73;7.90;;;;;9.30;102126.00;;;;9872871;29;20224;-78
2023/03/01 10:49:55;;;;;;;10.80;7.70;;;;;9.60;102117.00;;;;9900589;29;21471;-80
2023/03/01 10:55:03;;;;;;;12.00;8.53;;;;;9.60;102117.00;;;;9893070;29;20235;-79
2023/03/01 11:00:26;;;;;;;11.27;8.47;;;;;9.60;102113.00;;;;9886934;29;20203;-79
2023/03/01 11:05:30;;;;;;;13.83;8.43;;;;;9.90;102115.00;;;;9896902;29;20241;-79
2023/03/01 11:10:34;;;;;;;9.20;7.37;;;;;9.90;102108.00;;;;9902492;29;20272;-78
2023/03/01 11:15:37;;;;;;;10.67;7.97;;;;;10.20;102099.00;;;;9871534;29;20967;-79
2023/03/01 11:20:39;;;;;;;11.33;7.90;;;;;10.40;102087.00;;;;9890937;29;20285;-80
2023/03/01 11:25:52;;;;;;;10.97;7.37;;;;;10.70;102086.00;;;;9884958;29;20211;-79
2023/03/01 11:31:00;;;;;;;9.53;7.30;;;;;10.70;102090.00;;;;9886446;29;20234;-80
2023/03/01 11:36:41;;;;;;;10.33;7.40;;;;;10.80;102083.00;;;;9914981;29;20226;-79
2023/03/01 11:41:48;;;;;;;10.90;7.63;;;;;10.70;102084.00;;;;9852430;29;20211;-79
2023/03/01 11:47:15;;;;;;;8.53;6.27;;;;;10.60;102083.00;;;;9870066;29;20194;-79
2023/03/01 11:52:33;;;;;;;9.77;7.70;;;;;10.50;102073.00;;;;9886414;29;20210;-80
2023/03/01 11:57:37;;;;;;;10.40;7.60;;;;;10.40;102065.00;;;;9892974;29;20218;-80
2023/03/01 12:03:09;;;;;;;10.80;7.40;;;;;10.30;102052.00;;;;9901927;29;20740;-79
2023/03/01 12:08:26;;;;;;;9.53;7.07;;;;;10.40;102057.00;;;;9857162;29;20231;-80
2023/03/01 12:13:53;;;;;;;8.67;7.30;;;;;10.50;102042.00;;;;9888271;29;20198;-79
2023/03/01 12:19:22;;;;;;;10.00;7.17;;;;;10.60;102037.00;;;;9895553;29;20249;-79
2023/03/01 12:24:39;;;;;;;11.33;7.67;;;;;10.60;102031.00;;;;9905609;29;20200;-80
2023/03/01 12:29:53;;;;;;;11.80;7.40;;;;;10.90;102025.00;;;;9872760;29;20230;-79
2023/03/01 12:35:17;;;;;;;9.77;6.83;;;;;11.10;102008.00;;;;9870856;29;20231;-79
2023/03/01 12:40:32;;;;;;;10.63;8.23;;;;;11.10;101995.00;;;;9881269;29;20206;-79
2023/03/01 12:45:40;;;;;;;9.60;7.37;;;;;11.00;101996.00;;;;9893497;29;20214;-79
2023/03/01 12:50:47;;;;;;;11.33;8.23;;;;;11.20;101998.00;;;;9883051;29;20739;-79
2023/03/01 12:55:56;;;;;;;11.07;8.00;;;;;11.40;101983.00;;;;9884639;29;20219;-80
2023/03/01 13:01:31;;;;;;;11.97;7.70;;;;;11.40;101973.00;;;;9886478;29;20596;-80
2023/03/01 13:06:56;;;;;;;9.50;7.20;;;;;11.40;101960.00;;;;9860001;29;20457;-80
2023/03/01 13:11:58;;;;;;;9.73;7.20;;;;;11.50;101931.00;;;;9872479;29;20206;-80
2023/03/01 13:17:00;;;;;;;9.97;7.17;;;;;11.50;101944.00;;;;9897616;29;20216;-79
2023/03/01 13:22:27;;;;;;;11.30;7.97;;;;;11.70;101933.00;;;;9904869;29;20261;-80
2023/03/01 13:27:29;;;;;;;9.70;7.23;;;;;11.60;101937.00;;;;9895112;29;20589;-80
2023/03/01 13:32:39;;;;;;;10.07;6.93;;;;;11.60;101920.00;;;;9894455;29;20196;-81
2023/03/01 13:37:46;;;;;;;10.53;7.20;;;;;11.60;101927.00;;;;9902737;29;20263;-80
2023/03/01 13:43:09;;;;;;;11.13;8.03;;;;;11.30;101916.00;;;;9880254;29;20195;-80
2023/03/01 13:48:20;;;;;;;9.90;8.00;;;;;11.70;101906.00;;;;9903489;29;20219;-80
2023/03/01 13:53:26;;;;;;;11.27;8.17;;;;;11.80;101905.00;;;;9881410;29;20260;-80
2023/03/01 13:58:31;;;;;;;10.83;7.77;;;;;12.30;101899.00;;;;9886013;29;20872;-79
2023/03/01 14:03:41;;;;;;;11.17;8.03;;;;;12.30;101884.00;;;;9869931;30;20203;-79
2023/03/01 14:08:45;;;;;;;9.20;6.93;;;;;13.00;101879.00;;;;9856082;30;20240;-80
2023/03/01 14:14:24;;;;;;;12.20;7.93;;;;;13.00;101873.00;;;;9834668;30;20196;-80
2023/03/01 14:19:28;;;;;;;11.17;7.77;;;;;13.90;101872.00;;;;9826581;30;20212;-79
2023/03/01 14:24:40;;;;;;;9.30;7.33;;;;;14.40;101845.00;;;;9823999;30;20211;-79
2023/03/01 14:29:42;;;;;;;14.70;7.43;;;;;13.70;101838.00;;;;9891327;29;20200;-77
2023/03/01 14:34:46;;;;;;;10.97;6.90;;;;;13.30;101812.00;;;;9887226;29;20199;-77
2023/03/01 14:39:49;;;;;;;11.57;6.70;;;;;12.70;101811.00;;;;9887448;29;20196;-77
2023/03/01 14:44:53;;;;;;;9.87;7.87;;;;;14.20;101788.00;;;;9857605;30;20207;-77
2023/03/01 14:50:03;;;;;;;12.13;7.40;;;;;13.90;101794.00;;;;9860321;30;20216;-77
2023/03/01 14:55:15;;;;;;;10.67;7.53;;;;;14.00;101769.00;;;;9837780;30;20315;-77
2023/03/01 15:00:25;;;;;;;11.43;7.10;;;;;15.30;101750.00;;;;9839849;30;20253;-77
2023/03/01 15:05:32;;;;;;;10.23;7.87;;;;;15.70;101751.00;;;;9890468;30;20564;-76
2023/03/01 15:10:36;;;;;;;10.83;8.20;;;;;16.60;101734.00;;;;9874866;29;20228;-77
2023/03/01 15:15:42;;;;;;;10.90;8.30;;;;;14.30;101777.00;;;;9865511;30;20224;-77
2023/03/01 15:20:45;;;;;;;10.93;7.60;;;;;14.20;101779.00;;;;9872476;30;20203;-78
2023/03/01 15:25:56;;;;;;;11.20;8.13;;;;;12.70;101737.00;;;;9855532;29;20238;-77
2023/03/01 15:31:22;;;;;;;12.60;8.40;;;;;13.30;101743.00;;;;9856222;30;20790;-77
2023/03/01 15:36:34;;;;;;;11.07;7.63;;;;;14.60;101773.00;;;;9833319;29;20240;-78
2023/03/01 15:41:48;;;;;;;13.63;8.10;;;;;10.40;101785.00;;;;9842272;30;20239;-78
2023/03/01 15:46:51;;;;;;;8.70;6.70;;;;;9.00;101779.00;;;;9888208;30;20196;-79
2023/03/01 15:51:54;;;;;;;11.80;7.07;;;;;8.60;101775.00;;;;9873101;30;20261;-78
2023/03/01 15:56:56;;;;;;;11.43;7.50;;;;;8.10;101767.00;;;;9895340;29;20292;-78
2023/03/01 16:01:58;;;;;;;11.80;7.63;;;;;7.80;101760.00;;;;9872941;30;20296;-78
2023/03/01 16:07:00;;;;;;;11.13;7.20;;;;;7.70;101772.00;;;;9876309;29;20183;-78
2023/03/01 16:12:02;;;;;;;10.23;6.73;;;;;7.30;101779.00;;;;9904266;29;20221;-78
2023/03/01 16:17:05;;;;;;;10.50;6.33;;;;;7.00;101768.00;;;;9920018;29;20296;-79
2023/03/01 16:22:10;;;;;;;11.00;6.97;;;;;6.90;101767.00;;;;9886487;29;20310;-77
2023/03/01 16:27:11;;;;;;;10.33;6.57;;;;;6.70;101768.00;;;;9892267;29;20723;-79
2023/03/01 16:32:13;;;;;;;9.93;7.17;;;;;6.60;101751.00;;;;9884637;29;20298;-78
2023/03/01 16:37:16;;;;;;;8.63;6.07;;;;;6.40;101759.00;;;;9923199;29;20226;-78
2023/03/01 16:42:19;;;;;;;10.33;6.30;;;;;6.30;101756.00;;;;9883331;29;20271;-77
2023/03/01 16:47:21;;;;;;;7.90;6.37;;;;;6.20;101750.00;;;;9876202;29;20318;-79
2023/03/01 16:52:23;;;;;;;8.13;5.93;;;;;6.00;101758.00;;;;9899658;29;20232;-77
2023/03/01 16:57:25;;;;;;;12.80;6.40;;;;;5.80;101762.00;;;;9894932;29;20253;-77
2023/03/01 17:02:27;;;;;;;8.43;6.47;;;;;5.70;101760.00;;;;9898708;29;20895;-77
2023/03/01 17:07:33;;;;;;;9.17;5.73;;;;;5.60;101763.00;;;;9884387;29;20230;-77
2023/03/01 17:12:37;;;;;;;8.40;5.67;;;;;5.40;101763.00;;;;9881737;30;20200;-77
2023/03/01 17:17:39;;;;;;;10.57;7.03;;;;;5.30;101770.00;;;;9863181;29;20215;-77
2023/03/01 17:22:41;;;;;;;11.93;7.07;;;;;5.10;101765.00;;;;9877101;29;20882;-77
2023/03/01 17:27:43;;;;;;;14.10;7.40;;;;;4.90;101760.00;;;;9818841;29;20322;-77
2023/03/01 17:32:45;;;;;;;14.27;7.37;;;;;4.70;101767.00;;;;9858322;29;20277;-77
2023/03/01 17:37:47;;;;;;;13.17;7.27;;;;;4.50;101784.00;;;;9882107;29;20295;-78
2023/03/01 17:42:49;;;;;;;10.30;7.03;;;;;4.40;101778.00;;;;9840360;29;20214;-77
2023/03/01 17:47:51;;;;;;;10.27;7.77;;;;;4.20;101783.00;;;;9868130;30;20212;-78
2023/03/01 17:52:54;;;;;;;14.27;7.93;;;;;3.90;101785.00;;;;9873891;29;20204;-76
2023/03/01 17:57:56;;;;;;;19.80;10.17;;;;;3.70;101797.00;;;;9868728;29;20229;-79
2023/03/01 18:02:58;;;;;;;18.53;10.50;;;;;3.50;101814.00;;;;9871077;29;20583;-78
2023/03/01 18:08:00;;;;;;;15.43;9.60;;;;;3.30;101806.00;;;;9856183;29;20214;-82
2023/03/01 18:13:03;;;;;;;17.40;10.67;;;;;3.20;101819.00;;;;9883391;29;21009;-81
2023/03/01 18:18:07;;;;;;;16.03;9.07;;;;;3.10;101805.00;;;;9876274;29;20206;-79
2023/03/01 18:23:09;;;;;;;14.83;8.47;;;;;3.00;101808.00;;;;9876230;30;20206;-79
2023/03/01 18:28:11;;;;;;;14.77;7.97;;;;;3.00;101808.00;;;;9848567;29;20208;-79
2023/03/01 18:33:13;;;;;;;11.87;6.97;;;;;2.90;101821.00;;;;9847930;29;20291;-78
2023/03/01 18:38:15;;;;;;;13.53;7.80;;;;;2.80;101806.00;;;;9890338;29;20210;-79
2023/03/01 18:43:18;;;;;;;13.17;7.77;;;;;2.80;101806.00;;;;9881836;29;20602;-79
2023/03/01 18:48:20;;;;;;;9.57;6.47;;;;;2.60;101787.00;;;;9920340;29;21034;-78
2023/03/01 18:53:22;;;;;;;9.70;6.90;;;;;2.50;101794.00;;;;9880486;29;20223;-79
2023/03/01 18:58:24;;;;;;;15.27;7.50;;;;;2.50;101788.00;;;;9883184;29;20262;-81
2023/03/01 19:03:27;;;;;;;12.13;7.13;;;;;2.40;101791.00;;;;9899492;29;20259;-79
2023/03/01 19:08:30;;;;;;;14.57;8.63;;;;;2.40;101780.00;;;;9883270;29;20306;-79
2023/03/01 19:13:34;;;;;;;12.53;9.10;;;;;2.30;101776.00;;;;9876064;29;20204;-78
2023/03/01 19:18:40;;;;;;;12.93;7.83;;;;;2.20;101775.00;;;;9873741;29;20755;-78
2023/03/01 19:23:42;;;;;;;12.03;7.20;;;;;2.10;101769.00;;;;9856780;29;20207;-79
2023/03/01 19:28:45;;;;;;;12.27;7.13;;;;;2.10;101775.00;;;;9870784;29;20214;-78
2023/03/01 19:33:47;;;;;;;12.80;7.83;;;;;2.00;101769.00;;;;9882517;29;20215;-81
2023/03/01 19:38:50;;;;;;;14.10;8.73;;;;;2.00;101776.00;;;;9853254;29;20224;-79
2023/03/01 19:43:53;;;;;;;11.70;7.47;;;;;1.90;101769.00;;;;9875313;29;20191;-79
2023/03/01 19:48:55;;;;;;;18.73;8.23;;;;;1.80;101771.00;;;;9867004;29;20200;-79
2023/03/01 19:53:57;;;;;;;14.73;8.30;;;;;1.70;101762.00;;;;9854008;29;20288;-80
2023/03/01 19:59:02;;;;;;;18.93;10.17;;;;;1.70;101773.00;;;;9856754;29;20208;-79
2023/03/01 20:04:05;;;;;;;18.13;9.30;;;;;1.70;101757.00;;;;9845752;29;20620;-79
2023/03/01 20:09:08;;;;;;;18.27;9.23;;;;;1.60;101754.00;;;;9880375;29;20734;-79
2023/03/01 20:14:22;;;;;;;17.17;9.10;;;;;1.50;101755.00;;;;9835429;29;20199;-79
2023/03/01 20:19:25;;;;;;;14.87;8.37;;;;;1.40;101762.00;;;;9856687;29;21455;-77
2023/03/01 20:24:27;;;;;;;17.33;9.87;;;;;1.40;101771.00;;;;9851542;29;20216;-78
2023/03/01 20:29:29;;;;;;;15.97;8.70;;;;;1.40;101769.00;;;;9840481;29;20243;-79
2023/03/01 20:34:31;;;;;;;15.80;9.63;;;;;1.20;101772.00;;;;9851849;29;20192;-79
2023/03/01 20:39:35;;;;;;;15.27;9.47;;;;;1.10;101765.00;;;;9842747;29;20935;-78
2023/03/01 20:44:41;;;;;;;15.77;9.43;;;;;0.90;101774.00;;;;9848488;29;20232;-78
2023/03/01 20:49:43;;;;;;;18.73;9.90;;;;;0.70;101781.00;;;;9844573;29;20726;-79
2023/03/01 20:54:45;;;;;;;19.87;10.20;;;;;0.50;101770.00;;;;9871166;29;20223;-79
2023/03/01 20:59:47;;;;;;;13.57;8.40;;;;;0.40;101773.00;;;;9869748;29;20722;-78
2023/03/01 21:04:49;;;;;;;20.67;10.20;;;;;0.30;101760.00;;;;9848402;29;20290;-80
2023/03/01 21:09:51;;;;;;;17.07;10.27;;;;;0.10;101760.00;;;;9859355;29;20311;-79
2023/03/01 21:14:53;;;;;;;13.83;8.63;;;;;0.00;101756.00;;;;9866495;29;20211;-79
2023/03/01 21:19:55;;;;;;;15.53;9.00;;;;;0.00;101753.00;;;;9882975;29;20219;-78
2023/03/01 21:24:57;;;;;;;15.37;8.73;;;;;0.00;101745.00;;;;9885263;29;20207;-79
2023/03/01 21:29:59;;;;;;;19.47;9.77;;;;;0.00;101749.00;;;;9838102;29;20253;-79
2023/03/01 21:35:01;;;;;;;20.03;9.23;;;;;-0.20;101738.00;;;;9872250;29;20661;-78
2023/03/01 21:40:07;;;;;;;20.40;10.60;;;;;-0.30;101736.00;;;;9867750;29;20242;-79
2023/03/01 21:45:09;;;;;;;27.80;9.90;;;;;-0.40;101738.00;;;;9881243;29;21197;-79
2023/03/01 21:50:12;;;;;;;14.50;9.20;;;;;-0.50;101729.00;;;;9850628;29;20200;-80
2023/03/01 21:55:14;;;;;;;18.37;10.27;;;;;-0.60;101733.00;;;;9809957;30;20207;-79
2023/03/01 22:00:16;;;;;;;19.63;11.17;;;;;-0.70;101731.00;;;;9843768;29;20215;-78
2023/03/01 22:05:18;;;;;;;19.87;10.17;;;;;-0.80;101732.00;;;;9853727;29;20204;-79
2023/03/01 22:10:26;;;;;;;22.67;11.80;;;;;-0.90;101735.00;;;;9843408;29;20239;-79
2023/03/01 22:15:28;;;;;;;18.13;9.73;;;;;-1.00;101743.00;;;;9877300;29;20221;-79
2023/03/01 22:20:30;;;;;;;20.33;10.50;;;;;-1.10;101743.00;;;;9855298;29;20212;-78
2023/03/01 22:25:32;;;;;;;23.80;12.20;;;;;-1.10;101751.00;;;;9863874;29;20204;-79
2023/03/01 22:30:37;;;;;;;19.67;10.90;;;;;-1.20;101751.00;;;;9856721;29;20203;-78
2023/03/01 22:35:40;;;;;;;22.03;11.10;;;;;-1.30;101745.00;;;;9855353;29;20199;-78
2023/03/01 22:40:43;;;;;;;23.70;11.30;;;;;-1.40;101751.00;;;;9859527;29;20273;-78
2023/03/01 22:45:44;;;;;;;29.27;12.10;;;;;-1.50;101745.00;;;;9836779;30;61969;-78
2023/03/01 22:50:47;;;;;;;19.73;10.73;;;;;-1.60;101750.00;;;;9765205;29;20245;-79
2023/03/01 22:55:49;;;;;;;20.97;10.07;;;;;-1.60;101757.00;;;;9759633;30;72819;-79
2023/03/01 23:00:51;;;;;;;16.13;9.63;;;;;-1.60;101754.00;;;;9734243;30;20210;-79
2023/03/01 23:05:53;;;;;;;19.77;10.80;;;;;-1.60;101756.00;;;;9744896;30;74907;-79
2023/03/01 23:10:55;;;;;;;21.23;10.43;;;;;-1.70;101752.00;;;;9773360;30;20304;-79
2023/03/01 23:15:58;;;;;;;19.90;9.60;;;;;-1.70;101749.00;;;;9791675;30;20213;-79
2023/03/01 23:21:00;;;;;;;19.40;9.93;;;;;-1.80;101752.00;;;;9814378;30;20756;-79
2023/03/01 23:26:02;;;;;;;24.80;11.03;;;;;-1.80;101750.00;;;;9773287;30;20205;-79
2023/03/01 23:31:06;;;;;;;28.20;11.30;;;;;-1.70;101755.00;;;;9776322;30;20317;-79
2023/03/01 23:36:20;;;;;;;18.93;9.50;;;;;-1.70;101743.00;;;;9807491;30;20213;-79
2023/03/01 23:41:24;;;;;;;13.97;8.90;;;;;-1.70;101761.00;;;;9802918;30;20211;-79
2023/03/01 23:46:29;;;;;;;16.50;8.93;;;;;-1.80;101746.00;;;;9809153;30;20225;-79
2023/03/01 23:51:31;;;;;;;17.73;9.47;;;;;-1.80;101746.00;;;;9803041;30;20213;-79
2023/03/01 23:56:39;;;;;;;19.53;9.97;;;;;-1.90;101745.00;;;;9788804;30;20216;-79
